createdAt,value
2023-02-03T00:00:56.554Z,2.17
2023-02-03T00:03:26.846Z,2.67
2023-02-03T00:05:55.687Z,2.35
2023-02-03T00:08:26.354Z,1.83
2023-02-03T00:10:56.375Z,2.47
2023-02-03T00:13:28.627Z,0.90
2023-02-03T00:15:58.191Z,3.28
2023-02-03T00:18:25.414Z,3.72
2023-02-03T00:20:58.056Z,2.00
2023-02-03T00:23:34.272Z,1.62
2023-02-03T00:26:11.999Z,1.20
2023-02-03T00:28:45.122Z,2.33
2023-02-03T00:31:19.978Z,2.97
2023-02-03T00:33:55.092Z,2.40
2023-02-03T00:36:26.594Z,2.22
2023-02-03T00:38:56.344Z,1.73
2023-02-03T00:41:23.179Z,3.05
2023-02-03T00:43:50.260Z,2.03
2023-02-03T00:46:17.011Z,1.95
2023-02-03T00:48:46.618Z,1.83
2023-02-03T00:51:22.925Z,1.42
2023-02-03T00:53:55.770Z,1.83
2023-02-03T00:56:23.427Z,2.22
2023-02-03T00:58:52.899Z,1.17
2023-02-03T01:01:22.784Z,1.67
2023-02-03T01:03:50.331Z,2.15
2023-02-03T01:06:20.349Z,1.37
2023-02-03T01:08:50.656Z,2.22
2023-02-03T01:11:23.447Z,1.40
2023-02-03T01:13:52.300Z,1.67
2023-02-03T01:16:21.855Z,1.70
2023-02-03T01:18:52.631Z,1.70
2023-02-03T01:21:24.446Z,2.03
2023-02-03T01:23:54.161Z,1.52
2023-02-03T01:26:22.563Z,1.60
2023-02-03T01:28:59.781Z,2.65
2023-02-03T01:31:36.026Z,2.37
2023-02-03T01:34:04.383Z,1.55
2023-02-03T01:36:32.902Z,2.33
2023-02-03T01:39:02.298Z,1.10
2023-02-03T01:41:35.352Z,1.50
2023-02-03T01:46:31.895Z,1.58
2023-02-03T01:49:08.284Z,2.55
2023-02-03T01:51:37.016Z,2.12
2023-02-03T01:54:09.451Z,1.70
2023-02-03T01:56:41.317Z,1.40
2023-02-03T01:59:09.284Z,1.77
2023-02-03T02:01:42.684Z,2.22
2023-02-03T02:04:15.487Z,1.98
2023-02-03T02:06:42.380Z,2.22
2023-02-03T02:09:12.493Z,1.70
2023-02-03T02:11:39.231Z,1.80
2023-02-03T02:14:07.251Z,1.35
2023-02-03T02:16:43.299Z,2.10
2023-02-03T02:19:47.741Z,2.83
2023-02-03T02:22:38.642Z,1.58
2023-02-03T02:25:25.163Z,2.30
2023-02-03T02:28:39.187Z,1.70
2023-02-03T02:34:02.719Z,2.50
2023-02-03T02:36:42.136Z,7.62
2023-02-03T02:39:43.891Z,1.48
2023-02-03T02:42:23.161Z,1.20
2023-02-03T02:44:54.137Z,1.75
2023-02-03T02:47:23.858Z,1.60
2023-02-03T02:50:18.384Z,1.27
2023-02-03T02:52:48.620Z,1.60
2023-02-03T02:55:20.943Z,2.15
2023-02-03T02:57:49.385Z,2.37
2023-02-03T03:00:16.188Z,1.73
2023-02-03T03:02:43.311Z,2.45
2023-02-03T03:05:12.185Z,3.97
2023-02-03T03:07:51.077Z,1.67
2023-02-03T03:10:24.552Z,2.55
2023-02-03T03:13:02.004Z,2.30
2023-02-03T03:15:32.642Z,2.50
2023-02-03T03:18:08.765Z,1.35
2023-02-03T03:20:38.528Z,2.65
2023-02-03T03:23:15.515Z,1.37
2023-02-03T03:25:54.801Z,1.87
2023-02-03T03:28:37.988Z,2.17
2023-02-03T03:31:08.060Z,1.60
2023-02-03T03:33:38.648Z,1.60
2023-02-03T03:36:26.189Z,2.40
2023-02-03T03:39:06.536Z,2.05
2023-02-03T03:41:57.856Z,2.72
2023-02-03T03:44:31.263Z,2.50
2023-02-03T03:47:29.782Z,1.90
2023-02-03T03:49:57.859Z,2.67
2023-02-03T03:52:33.054Z,1.92
2023-02-03T03:55:06.740Z,2.53
2023-02-03T03:57:39.872Z,2.37
2023-02-03T04:00:09.633Z,3.40
2023-02-03T04:02:40.000Z,2.03
2023-02-03T04:05:13.124Z,2.05
2023-02-03T04:10:30.263Z,1.62
2023-02-03T04:12:57.236Z,2.00
2023-02-03T04:15:23.990Z,1.33
2023-02-03T04:17:50.823Z,0.93
2023-02-03T04:20:18.046Z,1.73
2023-02-03T04:22:44.702Z,1.35
2023-02-03T04:25:11.462Z,3.87
2023-02-03T04:27:38.297Z,2.37
2023-02-03T04:30:05.675Z,2.00
2023-02-03T04:32:32.484Z,2.72
2023-02-03T04:35:03.422Z,2.87
2023-02-03T04:37:33.671Z,1.98
2023-02-03T04:40:00.469Z,1.77
2023-02-03T04:42:33.427Z,1.40
2023-02-03T04:45:03.814Z,1.62
2023-02-03T04:47:30.467Z,2.30
2023-02-03T04:49:57.194Z,2.00
2023-02-03T04:52:27.119Z,1.33
2023-02-03T04:54:54.913Z,2.42
2023-02-03T04:57:21.679Z,2.33
2023-02-03T04:59:50.969Z,1.20
2023-02-03T05:02:17.620Z,2.22
2023-02-03T05:04:47.149Z,1.50
2023-02-03T05:07:16.800Z,1.73
2023-02-03T05:09:46.122Z,1.30
2023-02-03T05:12:13.305Z,1.83
2023-02-03T05:14:39.958Z,2.20
2023-02-03T05:17:09.327Z,1.77
2023-02-03T05:19:36.112Z,1.92
2023-02-03T05:22:08.369Z,1.45
2023-02-03T05:24:37.426Z,1.92
2023-02-03T05:27:07.152Z,3.35
2023-02-03T05:29:33.917Z,4.78
2023-02-03T05:32:04.323Z,2.17
2023-02-03T05:34:34.054Z,2.53
2023-02-03T05:37:03.599Z,7.28
2023-02-03T05:39:30.477Z,4.70
2023-02-03T05:41:58.423Z,5.22
2023-02-03T05:44:28.143Z,2.53
2023-02-03T05:46:58.332Z,3.42
2023-02-03T05:49:28.165Z,3.60
2023-02-03T05:51:55.900Z,3.92
2023-02-03T05:54:28.517Z,3.03
2023-02-03T05:56:55.291Z,3.28
2023-02-03T05:59:24.999Z,3.72
2023-02-03T06:01:51.678Z,3.90
2023-02-03T06:04:18.610Z,4.20
2023-02-03T06:06:51.341Z,6.25
2023-02-03T06:09:21.065Z,4.97
2023-02-03T06:11:47.786Z,3.30
2023-02-03T06:14:14.489Z,4.55
2023-02-03T06:16:47.820Z,3.53
2023-02-03T06:19:17.619Z,2.85
2023-02-03T06:21:44.242Z,2.95
2023-02-03T06:24:13.725Z,2.62
2023-02-03T06:26:40.422Z,3.83
2023-02-03T06:29:10.022Z,4.32
2023-02-03T06:31:40.223Z,4.25
2023-02-03T06:34:10.253Z,3.37
2023-02-03T06:36:37.380Z,4.28
2023-02-03T06:39:07.975Z,4.20
2023-02-03T06:41:34.949Z,3.60
2023-02-03T06:44:01.911Z,3.80
2023-02-03T06:46:28.990Z,4.00
2023-02-03T06:48:56.641Z,3.92
2023-02-03T06:51:23.790Z,3.80
2023-02-03T06:53:54.843Z,5.75
2023-02-03T06:56:25.005Z,6.07
2023-02-03T06:58:55.611Z,9.32
2023-02-03T07:01:25.182Z,6.85
2023-02-03T07:04:38.524Z,6.22
2023-02-03T07:07:06.572Z,4.95
2023-02-03T07:09:33.735Z,8.18
2023-02-03T07:12:01.377Z,7.72
2023-02-03T07:14:32.114Z,4.90
2023-02-03T07:17:05.205Z,7.18
2023-02-03T07:19:36.839Z,6.15
2023-02-03T07:22:07.314Z,6.20
2023-02-03T07:24:43.564Z,5.00
2023-02-03T07:27:48.799Z,4.40
2023-02-03T07:30:16.319Z,9.68
2023-02-03T07:32:48.374Z,6.35
2023-02-03T07:35:16.760Z,5.75
2023-02-03T07:38:22.746Z,9.75
2023-02-03T07:40:57.566Z,6.40
2023-02-03T07:43:27.713Z,10.85
2023-02-03T07:45:55.024Z,13.35
2023-02-03T07:48:25.319Z,7.15
2023-02-03T07:50:52.226Z,9.13
2023-02-03T07:53:26.038Z,9.57
2023-02-03T07:56:00.159Z,13.98
2023-02-03T07:58:32.859Z,8.77
2023-02-03T08:01:05.177Z,10.93
2023-02-03T08:03:36.289Z,11.18
2023-02-03T08:06:05.955Z,11.80
2023-02-03T08:14:59.751Z,12.10
2023-02-03T08:17:28.138Z,23.15
2023-02-03T08:20:03.258Z,15.88
2023-02-03T08:22:35.833Z,14.82
2023-02-03T08:25:08.668Z,22.37
2023-02-03T08:27:38.204Z,30.52
2023-02-03T08:30:06.222Z,25.67
2023-02-03T08:32:36.716Z,25.37
2023-02-03T08:35:43.101Z,29.40
2023-02-03T08:38:10.329Z,30.20
2023-02-03T08:40:40.424Z,46.28
2023-02-03T08:43:10.103Z,44.75
2023-02-03T08:45:42.806Z,54.40
2023-02-03T08:48:15.972Z,55.58
2023-02-03T08:50:45.533Z,76.32
2023-02-03T08:53:12.912Z,71.45
2023-02-03T08:55:44.764Z,63.70
2023-02-03T08:58:14.805Z,78.95
2023-02-03T09:00:45.500Z,89.55
2023-02-03T09:03:15.089Z,441.65
2023-02-03T09:05:42.349Z,394.52
2023-02-03T09:08:09.331Z,347.77
2023-02-03T09:10:36.522Z,300.55
2023-02-03T09:13:11.684Z,309.08
2023-02-03T09:15:39.103Z,328.73
2023-02-03T09:18:27.232Z,344.10
2023-02-03T09:21:20.943Z,335.45
2023-02-03T09:24:00.523Z,390.42
2023-02-03T09:26:30.257Z,369.70
2023-02-03T09:29:00.862Z,415.10
2023-02-03T09:31:32.061Z,414.00
2023-02-03T09:34:00.325Z,394.62
2023-02-03T09:36:27.769Z,540.03
2023-02-03T09:38:58.167Z,452.50
2023-02-03T09:42:01.027Z,445.55
2023-02-03T09:44:50.509Z,429.67
2023-02-03T09:47:29.373Z,412.95
2023-02-03T09:50:02.141Z,402.92
2023-02-03T09:52:38.667Z,402.98
2023-02-03T09:55:17.632Z,394.90
2023-02-03T09:57:55.399Z,373.70
2023-02-03T10:00:28.998Z,367.00
2023-02-03T10:03:17.837Z,354.95
2023-02-03T10:05:59.789Z,349.23
2023-02-03T10:08:26.692Z,339.27
2023-02-03T10:11:20.705Z,313.25
2023-02-03T10:13:59.831Z,306.83
2023-02-03T10:16:49.483Z,303.12
2023-02-03T10:19:24.244Z,284.92
2023-02-03T10:21:56.348Z,285.58
2023-02-03T10:24:38.830Z,275.63
2023-02-03T10:27:17.001Z,276.60
2023-02-03T10:29:44.188Z,281.13
2023-02-03T10:32:12.811Z,286.05
2023-02-03T10:34:47.521Z,271.30
2023-02-03T10:37:39.526Z,248.82
2023-02-03T10:40:45.114Z,227.77
2023-02-03T10:46:57.743Z,223.20
2023-02-03T10:52:47.098Z,216.68
2023-02-03T10:55:23.070Z,195.62
2023-02-03T10:57:54.367Z,209.93
2023-02-03T11:00:43.752Z,190.27
2023-02-03T11:03:35.235Z,183.45
2023-02-03T11:06:08.813Z,193.27
2023-02-03T11:08:38.414Z,164.93
2023-02-03T11:11:13.755Z,180.32
2023-02-03T11:14:21.848Z,161.60
2023-02-03T11:20:18.262Z,150.57
2023-02-03T11:22:50.579Z,163.70
2023-02-03T11:26:00.040Z,154.15
2023-02-03T11:28:29.213Z,148.40
2023-02-03T11:30:57.858Z,158.02
2023-02-03T11:33:27.774Z,152.25
2023-02-03T11:36:03.765Z,139.85
2023-02-03T11:38:38.483Z,144.02
2023-02-03T11:41:17.433Z,136.77
2023-02-03T11:43:47.729Z,136.07
2023-02-03T11:46:17.302Z,129.68
2023-02-03T11:49:24.379Z,134.18
2023-02-03T11:52:37.115Z,134.95
2023-02-03T11:55:30.986Z,129.43
2023-02-03T11:58:42.787Z,124.35
2023-02-03T12:01:37.098Z,124.30
2023-02-03T12:04:25.671Z,118.40
2023-02-03T12:07:00.022Z,116.43
2023-02-03T12:09:39.833Z,119.18
2023-02-03T12:12:12.439Z,110.93
2023-02-03T12:15:22.382Z,110.97
2023-02-03T12:18:20.293Z,104.95
2023-02-03T12:20:56.209Z,99.72
2023-02-03T12:23:34.696Z,111.68
2023-02-03T12:26:27.673Z,101.20
2023-02-03T12:29:32.469Z,100.60
2023-02-03T12:32:24.106Z,99.60
2023-02-03T12:35:12.159Z,93.03
2023-02-03T12:37:58.778Z,95.78
2023-02-03T12:40:36.900Z,94.15
2023-02-03T12:43:25.179Z,96.32
2023-02-03T12:45:57.689Z,93.50
2023-02-03T12:48:36.815Z,83.37
2023-02-03T12:51:14.797Z,83.05
2023-02-03T12:53:49.030Z,88.95
2023-02-03T12:56:23.299Z,83.18
2023-02-03T12:59:23.100Z,80.30
2023-02-03T13:02:01.282Z,76.97
2023-02-03T13:05:05.754Z,85.45
2023-02-03T13:08:22.300Z,79.95
2023-02-03T13:11:15.019Z,79.62
2023-02-03T13:13:52.235Z,79.62
2023-02-03T13:16:28.251Z,69.75
2023-02-03T13:19:21.242Z,64.15
2023-02-03T13:21:51.611Z,72.18
2023-02-03T13:24:25.264Z,67.15
2023-02-03T13:27:31.784Z,67.93
2023-02-03T13:30:10.297Z,65.72
2023-02-03T13:32:56.121Z,60.72
2023-02-03T13:35:51.166Z,66.55
2023-02-03T13:38:26.644Z,69.93
2023-02-03T13:41:04.849Z,63.83
2023-02-03T13:44:09.269Z,63.25
2023-02-03T13:46:43.854Z,60.78
2023-02-03T13:49:21.895Z,62.15
2023-02-03T13:51:48.614Z,61.72
2023-02-03T13:54:33.630Z,60.03
2023-02-03T13:57:03.893Z,58.90
2023-02-03T13:59:43.748Z,58.92
2023-02-03T14:02:19.609Z,65.62
2023-02-03T14:04:46.350Z,94.45
2023-02-03T14:07:35.465Z,62.50
2023-02-03T14:10:20.681Z,321.17
2023-02-03T14:12:52.784Z,120.10
2023-02-03T14:15:28.802Z,114.07
2023-02-03T14:18:05.024Z,99.80
2023-02-03T14:20:40.462Z,112.07
2023-02-03T14:23:06.993Z,109.70
2023-02-03T14:25:58.840Z,96.95
2023-02-03T14:28:41.283Z,105.35
2023-02-03T14:31:12.205Z,107.78
2023-02-03T14:33:50.854Z,108.80
2023-02-03T14:36:28.122Z,104.35
2023-02-03T14:39:00.089Z,97.82
2023-02-03T14:41:52.208Z,102.65
2023-02-03T14:44:36.947Z,93.18
2023-02-03T14:47:40.109Z,84.53
2023-02-03T14:50:45.555Z,90.38
2023-02-03T14:53:24.687Z,87.35
2023-02-03T14:56:34.365Z,88.82
2023-02-03T14:59:04.796Z,86.28
2023-02-03T15:01:37.679Z,89.55
2023-02-03T15:06:47.734Z,83.40
2023-02-03T15:09:26.965Z,91.87
2023-02-03T15:11:53.791Z,86.35
2023-02-03T15:14:26.745Z,92.97
2023-02-03T15:19:26.302Z,82.45
2023-02-03T15:21:56.589Z,87.20
2023-02-03T15:24:23.451Z,81.00
2023-02-03T15:26:53.078Z,81.90
2023-02-03T15:29:37.901Z,75.60
2023-02-03T15:32:43.061Z,80.78
2023-02-03T15:35:20.257Z,84.90
2023-02-03T15:37:55.020Z,73.07
2023-02-03T15:40:25.187Z,78.37
2023-02-03T15:43:16.694Z,77.32
2023-02-03T15:46:34.451Z,78.80
2023-02-03T15:49:07.187Z,69.43
2023-02-03T15:51:41.282Z,72.10
2023-02-03T15:54:22.225Z,75.87
2023-02-03T15:56:56.051Z,79.22
2023-02-03T15:59:38.690Z,64.60
2023-02-03T16:02:45.609Z,76.28
2023-02-03T16:05:24.541Z,74.12
2023-02-03T16:07:54.870Z,74.65
2023-02-03T16:10:33.889Z,65.37
2023-02-03T16:13:23.543Z,61.88
2023-02-03T16:16:14.331Z,57.42
2023-02-03T16:18:51.852Z,67.90
2023-02-03T16:21:50.467Z,71.03
2023-02-03T16:24:35.980Z,73.82
2023-02-03T16:27:27.286Z,72.40
2023-02-03T16:30:14.769Z,70.30
2023-02-03T16:32:44.409Z,78.12
2023-02-03T16:35:14.112Z,69.53
2023-02-03T16:37:44.800Z,64.65
2023-02-03T16:40:20.001Z,71.03
2023-02-03T16:42:49.941Z,62.28
2023-02-03T16:45:20.627Z,66.47
2023-02-03T16:47:53.149Z,65.40
2023-02-03T16:50:37.799Z,62.38
2023-02-03T16:53:17.063Z,66.00
2023-02-03T16:55:50.910Z,63.38
2023-02-03T16:58:21.380Z,64.35
2023-02-03T17:00:52.234Z,68.50
2023-02-03T17:03:26.455Z,66.10
2023-02-03T17:05:54.124Z,63.70
2023-02-03T17:08:25.808Z,63.55
2023-02-03T17:11:03.117Z,56.37
2023-02-03T17:13:35.776Z,62.03
2023-02-03T17:16:09.667Z,60.90
2023-02-03T17:18:39.927Z,53.90
2023-02-03T17:21:12.809Z,56.08
2023-02-03T17:23:39.556Z,52.13
2023-02-03T17:26:12.246Z,60.22
2023-02-03T17:28:44.824Z,53.90
2023-02-03T17:31:18.346Z,54.08
2023-02-03T17:33:51.454Z,44.22
2023-02-03T17:55:41.087Z,47.17
2023-02-03T17:58:11.101Z,47.72
2023-02-03T18:00:41.086Z,44.08
2023-02-03T18:03:10.711Z,42.50
2023-02-03T18:05:37.478Z,52.95
2023-02-03T18:08:12.209Z,51.33
2023-02-03T18:10:46.121Z,45.53
2023-02-03T18:13:12.991Z,41.25
2023-02-03T18:15:45.788Z,44.55
2023-02-03T18:18:15.695Z,44.60
2023-02-03T18:20:45.704Z,44.80
2023-02-03T18:23:16.060Z,39.28
2023-02-03T18:26:00.598Z,41.25
2023-02-03T18:28:33.523Z,38.22
2023-02-03T18:33:36.816Z,37.40
2023-02-03T18:36:10.899Z,37.20
2023-02-03T18:38:42.178Z,35.22
2023-02-03T18:41:22.894Z,38.72
2023-02-03T18:43:56.573Z,41.55
2023-02-03T18:46:30.836Z,41.37
2023-02-03T18:49:01.315Z,40.55
2023-02-03T18:51:28.865Z,36.53
2023-02-03T18:54:06.629Z,37.10
2023-02-03T18:56:39.731Z,38.00
2023-02-03T18:59:13.097Z,39.55
2023-02-03T19:01:43.979Z,39.97
2023-02-03T19:04:20.733Z,34.42
2023-02-03T19:07:00.501Z,33.05
2023-02-03T19:09:33.254Z,37.30
2023-02-03T19:12:00.134Z,34.22
2023-02-03T19:14:27.089Z,36.75
2023-02-03T19:17:00.931Z,42.20
2023-02-03T19:19:31.319Z,35.72
2023-02-03T19:22:03.852Z,33.70
2023-02-03T19:24:33.700Z,33.53
2023-02-03T19:27:04.987Z,32.65
2023-02-03T19:29:38.250Z,31.60
2023-02-03T19:32:06.255Z,31.73
2023-02-03T19:34:36.201Z,28.35
2023-02-03T19:37:03.062Z,30.48
2023-02-03T19:39:33.555Z,29.00
2023-02-03T19:42:07.060Z,27.02
2023-02-03T19:44:42.870Z,28.23
2023-02-03T19:47:12.749Z,31.58
2023-02-03T19:49:39.521Z,28.52
2023-02-03T19:52:12.499Z,27.92
2023-02-03T19:57:11.046Z,30.83
2023-02-03T19:59:38.260Z,28.98
2023-02-03T20:02:14.404Z,28.45
2023-02-03T20:04:42.409Z,30.70
2023-02-03T20:07:12.548Z,27.35
2023-02-03T20:09:47.729Z,24.40
2023-02-03T20:12:17.835Z,25.85
2023-02-03T20:14:51.009Z,26.50
2023-02-03T20:17:18.257Z,23.48
2023-02-03T20:19:51.631Z,25.45
2023-02-03T20:22:21.440Z,22.33
2023-02-03T20:24:51.567Z,24.87
2023-02-03T20:27:20.879Z,22.25
2023-02-03T20:29:51.283Z,25.67
2023-02-03T20:32:23.255Z,26.37
2023-02-03T20:34:53.187Z,25.27
2023-02-03T20:37:26.228Z,22.10
2023-02-03T20:42:27.478Z,22.67
2023-02-03T20:44:54.909Z,24.50
2023-02-03T20:47:21.792Z,21.55
2023-02-03T20:49:56.047Z,23.08
2023-02-03T20:52:22.812Z,23.10
2023-02-03T20:54:52.468Z,21.65
2023-02-03T20:57:23.580Z,21.27
2023-02-03T20:59:50.391Z,20.77
2023-02-03T21:02:24.168Z,18.23
2023-02-03T21:04:56.347Z,19.08
2023-02-03T21:07:32.187Z,21.35
2023-02-03T21:09:59.820Z,22.33
2023-02-03T21:12:29.732Z,18.67
2023-02-03T21:14:59.625Z,17.52
2023-02-03T21:17:35.410Z,18.45
2023-02-03T21:20:02.208Z,17.30
2023-02-03T21:22:29.987Z,21.27
2023-02-03T21:25:01.181Z,19.37
2023-02-03T21:27:35.041Z,20.15
2023-02-03T21:30:22.265Z,17.85
2023-02-03T21:32:49.082Z,18.17
2023-02-03T21:35:24.256Z,16.90
2023-02-03T21:37:55.661Z,15.95
2023-02-03T21:40:26.256Z,17.48
2023-02-03T21:42:54.162Z,17.75
2023-02-03T21:45:24.033Z,17.42
2023-02-03T21:47:52.709Z,15.77
2023-02-03T21:50:37.449Z,15.65
2023-02-03T21:53:13.439Z,18.92
2023-02-03T21:55:47.231Z,14.82
2023-02-03T21:58:34.900Z,16.12
2023-02-03T22:01:07.735Z,16.30
2023-02-03T22:03:40.541Z,17.33
2023-02-03T22:06:17.095Z,16.42
2023-02-03T22:08:51.723Z,17.50
2023-02-03T22:11:27.353Z,17.80
2023-02-03T22:13:58.094Z,18.85
2023-02-03T22:16:33.355Z,14.15
2023-02-03T22:19:04.405Z,15.90
2023-02-03T22:21:35.157Z,33.67
2023-02-03T22:24:09.612Z,20.12
2023-02-03T22:26:40.114Z,14.45
2023-02-03T22:29:10.773Z,14.77
2023-02-03T22:31:40.845Z,15.68
2023-02-03T22:34:11.380Z,11.20
2023-02-03T22:36:40.925Z,15.85
2023-02-03T22:39:18.559Z,15.48
2023-02-03T22:41:52.677Z,16.60
2023-02-03T22:44:19.949Z,14.90
2023-02-03T22:46:49.522Z,16.27
2023-02-03T22:49:22.231Z,13.75
2023-02-03T22:51:49.658Z,12.93
2023-02-03T22:54:25.327Z,13.62
2023-02-03T22:56:58.585Z,11.45
2023-02-03T22:59:29.675Z,12.50
2023-02-03T23:01:56.712Z,12.15
2023-02-03T23:04:26.792Z,12.85
2023-02-03T23:06:54.915Z,13.52
2023-02-03T23:09:22.216Z,12.37
2023-02-03T23:11:55.328Z,13.23
2023-02-03T23:14:22.391Z,10.30
2023-02-03T23:16:51.844Z,12.95
2023-02-03T23:19:20.949Z,12.88
2023-02-03T23:21:48.253Z,11.12
2023-02-03T23:24:15.242Z,13.45
2023-02-03T23:26:42.525Z,11.02
2023-02-03T23:29:13.013Z,11.25
2023-02-03T23:31:40.579Z,11.75
2023-02-03T23:34:07.847Z,15.82
2023-02-03T23:36:38.011Z,9.98
2023-02-03T23:39:05.218Z,11.88
2023-02-03T23:41:35.461Z,11.00
2023-02-03T23:44:02.543Z,10.15
2023-02-03T23:46:29.614Z,11.40
2023-02-03T23:48:56.548Z,12.65
2023-02-03T23:51:23.966Z,10.07
2023-02-03T23:53:50.795Z,9.52
2023-02-03T23:56:20.866Z,9.57
2023-02-03T23:58:50.607Z,13.15
